Time;durP1;ratioP1;P1;durP2;ratioP2;P2;SDS_P1;SDS_P2;PMS_P1;PMS_P2;Temp;Humidity;BMP_temperature;BMP_pressure;BME280_temperature;BME280_humidity;BME280_pressure;Samples;Min_cycle;Max_cycle;Signal;HPM_P1;HPM_P2
2023/03/04 00:01:58;;;;;;;113.33;52.93;;;0.30;99.90;;;;;;5028904;28;20026;-85
2023/03/04 00:04:24;;;;;;;116.47;52.63;;;0.30;99.90;;;;;;5026601;28;20087;-86
2023/03/04 00:06:49;;;;;;;119.93;54.80;;;0.20;99.90;;;;;;5029263;28;20052;-86
2023/03/04 00:09:15;;;;;;;116.97;53.07;;;0.20;99.90;;;;;;5030104;28;20030;-86
2023/03/04 00:11:40;;;;;;;117.77;54.53;;;0.20;99.90;;;;;;5028942;28;20083;-86
2023/03/04 00:14:06;;;;;;;119.43;53.27;;;0.20;99.90;;;;;;5028004;28;20037;-85
2023/03/04 00:16:31;;;;;;;125.03;53.83;;;0.20;99.90;;;;;;5028376;28;20056;-86
2023/03/04 00:18:57;;;;;;;112.17;51.70;;;0.20;99.90;;;;;;5029266;28;20699;-86
2023/03/04 00:21:23;;;;;;;120.10;54.00;;;0.10;99.90;;;;;;5026972;28;20087;-86
2023/03/04 00:23:49;;;;;;;116.23;53.47;;;0.10;99.90;;;;;;5028898;28;20040;-86
2023/03/04 00:26:16;;;;;;;122.17;54.67;;;0.10;99.90;;;;;;5028434;28;20033;-83
2023/03/04 00:28:41;;;;;;;121.77;54.17;;;0.10;99.90;;;;;;5027738;28;20125;-83
2023/03/04 00:31:08;;;;;;;117.37;54.50;;;0.10;99.90;;;;;;5028246;28;20104;-84
2023/03/04 00:33:34;;;;;;;132.17;57.40;;;0.10;99.90;;;;;;5027574;28;20478;-83
2023/03/04 00:36:00;;;;;;;118.83;54.40;;;0.00;99.90;;;;;;5027363;28;20041;-83
2023/03/04 00:38:26;;;;;;;115.80;53.10;;;0.00;99.90;;;;;;5028673;28;20024;-83
2023/03/04 00:40:52;;;;;;;127.43;55.50;;;0.10;99.90;;;;;;5027797;28;20017;-83
2023/03/04 00:43:17;;;;;;;117.33;54.73;;;0.00;99.90;;;;;;5028825;28;20080;-83
2023/03/04 00:45:43;;;;;;;122.07;54.03;;;0.00;99.90;;;;;;5027931;28;20365;-84
2023/03/04 00:48:08;;;;;;;120.33;55.00;;;0.00;99.90;;;;;;5030025;28;20045;-84
2023/03/04 00:50:34;;;;;;;119.97;54.20;;;0.00;99.90;;;;;;5028286;28;20028;-84
2023/03/04 00:53:00;;;;;;;117.53;53.77;;;0.00;99.90;;;;;;5027976;28;20498;-84
2023/03/04 00:55:26;;;;;;;121.90;54.73;;;0.00;99.90;;;;;;5028925;28;20020;-84
2023/03/04 00:57:51;;;;;;;120.83;53.53;;;0.00;99.90;;;;;;5027883;28;20033;-84
2023/03/04 01:00:18;;;;;;;120.90;53.53;;;0.00;99.90;;;;;;5029057;28;20084;-84
2023/03/04 01:02:43;;;;;;;124.40;53.93;;;-0.10;99.90;;;;;;5029070;28;20025;-84
2023/03/04 01:05:09;;;;;;;123.27;55.33;;;-0.10;99.90;;;;;;5028871;28;20106;-84
2023/03/04 01:07:35;;;;;;;123.40;54.83;;;-0.10;99.90;;;;;;5027805;28;20025;-84
2023/03/04 01:10:01;;;;;;;125.00;54.30;;;-0.10;99.90;;;;;;5028738;28;20034;-84
2023/03/04 01:12:27;;;;;;;119.13;53.10;;;-0.10;99.90;;;;;;5026698;28;20025;-84
2023/03/04 01:14:52;;;;;;;126.57;54.50;;;-0.10;99.90;;;;;;5029052;28;20477;-84
2023/03/04 01:17:18;;;;;;;122.93;54.90;;;-0.10;99.90;;;;;;5027268;28;20071;-84
2023/03/04 01:19:44;;;;;;;125.03;54.10;;;-0.10;99.90;;;;;;5028010;28;20025;-84
2023/03/04 01:22:11;;;;;;;121.70;53.70;;;-0.10;99.90;;;;;;5028303;28;20026;-84
2023/03/04 01:24:38;;;;;;;119.87;53.03;;;-0.20;99.90;;;;;;5027166;28;20029;-84
2023/03/04 01:27:04;;;;;;;118.10;54.40;;;-0.20;99.90;;;;;;5026215;28;20992;-84
2023/03/04 01:29:29;;;;;;;112.87;53.37;;;-0.20;99.90;;;;;;5028832;28;20029;-84
2023/03/04 01:31:55;;;;;;;119.53;53.67;;;-0.20;99.90;;;;;;5026977;28;20048;-84
2023/03/04 01:34:21;;;;;;;120.30;54.07;;;-0.20;99.90;;;;;;5026502;28;20080;-84
2023/03/04 01:36:46;;;;;;;122.53;54.10;;;-0.20;99.90;;;;;;5027390;28;20040;-84
2023/03/04 01:39:12;;;;;;;123.53;54.37;;;-0.20;99.90;;;;;;5029689;28;20025;-84
2023/03/04 01:41:37;;;;;;;119.20;52.70;;;-0.20;99.90;;;;;;5030557;28;20030;-84
2023/03/04 01:44:03;;;;;;;118.47;52.17;;;-0.30;99.90;;;;;;5031601;28;20036;-84
2023/03/04 01:46:30;;;;;;;124.07;56.93;;;-0.30;99.90;;;;;;5031760;28;20081;-84
2023/03/04 01:48:56;;;;;;;129.43;57.57;;;-0.30;99.90;;;;;;5032385;28;20088;-84
2023/03/04 01:51:21;;;;;;;124.97;55.33;;;-0.30;99.90;;;;;;5031903;28;20080;-85
2023/03/04 01:53:50;;;;;;;117.43;55.00;;;-0.30;99.90;;;;;;5030013;28;20025;-84
2023/03/04 01:56:24;;;;;;;115.17;53.57;;;-0.30;99.90;;;;;;5031344;28;20112;-84
2023/03/04 01:59:17;;;;;;;119.03;56.10;;;-0.30;99.90;;;;;;5030572;28;21387;-84
2023/03/04 02:01:49;;;;;;;118.23;53.43;;;-0.40;99.90;;;;;;5031125;28;20021;-84
2023/03/04 02:04:17;;;;;;;115.57;51.13;;;-0.40;99.90;;;;;;5031063;28;20577;-84
2023/03/04 02:06:45;;;;;;;114.57;52.60;;;-0.40;99.90;;;;;;5031232;28;20071;-84
2023/03/04 02:09:11;;;;;;;111.43;49.83;;;-0.50;99.90;;;;;;5029883;28;20033;-84
2023/03/04 02:11:37;;;;;;;116.87;52.67;;;-0.50;99.90;;;;;;5029439;28;20103;-84
2023/03/04 02:14:03;;;;;;;113.00;52.53;;;-0.50;99.90;;;;;;5028480;28;20024;-84
2023/03/04 02:16:30;;;;;;;109.00;50.23;;;-0.50;99.90;;;;;;5029877;28;20146;-84
2023/03/04 02:18:56;;;;;;;115.17;52.10;;;-0.60;99.90;;;;;;5029090;28;20028;-84
2023/03/04 02:21:28;;;;;;;113.03;52.50;;;-0.60;99.90;;;;;;5028681;28;20017;-84
2023/03/04 02:24:14;;;;;;;111.37;50.37;;;-0.60;99.90;;;;;;5030910;28;20057;-84
2023/03/04 02:26:42;;;;;;;;;;;-0.60;99.90;;;;;;5030441;28;20055;-84
2023/03/04 02:29:10;;;;;;;110.83;50.53;;;-0.60;99.90;;;;;;5030055;28;19912;-84
2023/03/04 02:31:48;;;;;;;105.20;49.57;;;-0.60;99.90;;;;;;5028009;28;20061;-84
2023/03/04 02:34:16;;;;;;;107.23;50.17;;;-0.60;99.90;;;;;;5030080;28;20817;-84
2023/03/04 02:36:44;;;;;;;109.40;49.67;;;-0.60;99.90;;;;;;5030384;28;20021;-84
2023/03/04 02:39:22;;;;;;;105.80;48.93;;;-0.60;99.90;;;;;;5029425;28;20417;-84
2023/03/04 02:41:48;;;;;;;101.40;49.63;;;-0.60;99.90;;;;;;5029667;28;20025;-84
2023/03/04 02:44:18;;;;;;;99.03;48.73;;;-0.70;99.90;;;;;;5031165;28;20429;-84
2023/03/04 02:46:44;;;;;;;103.53;50.60;;;-0.70;99.90;;;;;;5030170;28;20504;-84
2023/03/04 02:49:10;;;;;;;103.60;48.83;;;-0.70;99.90;;;;;;5031421;28;20052;-84
2023/03/04 02:51:36;;;;;;;100.73;48.73;;;-0.70;99.90;;;;;;5028848;28;20136;-84
2023/03/04 02:54:01;;;;;;;102.73;50.60;;;-0.70;99.90;;;;;;5030360;28;20029;-84
2023/03/04 02:56:27;;;;;;;101.67;48.63;;;-0.70;99.90;;;;;;5030570;28;20385;-84
2023/03/04 02:58:52;;;;;;;100.77;48.27;;;-0.70;99.90;;;;;;5030085;28;20037;-84
2023/03/04 03:01:18;;;;;;;101.03;48.97;;;-0.70;99.90;;;;;;5029758;28;20026;-85
2023/03/04 03:03:43;;;;;;;96.73;49.83;;;-0.70;99.90;;;;;;5030360;28;20036;-85
2023/03/04 03:06:09;;;;;;;89.33;44.20;;;-0.80;99.90;;;;;;5029921;28;20021;-85
2023/03/04 03:08:34;;;;;;;89.03;46.13;;;-0.80;99.90;;;;;;5031115;28;21368;-85
2023/03/04 03:11:00;;;;;;;89.37;45.53;;;-0.80;99.90;;;;;;5028909;28;20498;-85
2023/03/04 03:13:26;;;;;;;85.73;43.13;;;-0.80;99.90;;;;;;5030119;28;20099;-84
2023/03/04 03:15:51;;;;;;;79.53;43.10;;;-0.80;99.90;;;;;;5029482;28;20135;-84
2023/03/04 03:18:17;;;;;;;82.13;43.70;;;-0.90;99.90;;;;;;5028819;28;20031;-84
2023/03/04 03:20:42;;;;;;;72.27;40.20;;;-0.90;99.90;;;;;;5030856;28;20459;-84
2023/03/04 03:23:08;;;;;;;78.53;41.97;;;-0.90;99.90;;;;;;5027840;28;20480;-84
2023/03/04 03:25:34;;;;;;;79.73;42.43;;;-1.00;99.90;;;;;;5029101;28;20051;-84
2023/03/04 03:27:59;;;;;;;78.17;43.13;;;-1.00;99.90;;;;;;5030263;28;20172;-84
2023/03/04 03:30:25;;;;;;;79.37;42.87;;;-1.10;99.90;;;;;;5027933;28;20030;-84
2023/03/04 03:32:50;;;;;;;78.83;41.50;;;-1.10;99.90;;;;;;5030314;28;20090;-84
2023/03/04 03:35:16;;;;;;;77.37;41.53;;;-1.10;99.90;;;;;;5028807;28;20039;-84
2023/03/04 03:37:42;;;;;;;73.47;40.43;;;-1.10;99.90;;;;;;5028973;28;20040;-84
2023/03/04 03:40:08;;;;;;;79.63;40.03;;;-1.20;99.90;;;;;;5027667;28;20029;-84
2023/03/04 03:42:34;;;;;;;81.37;42.17;;;-1.20;99.90;;;;;;5029460;28;20033;-85
2023/03/04 03:44:59;;;;;;;78.77;41.90;;;-1.20;99.90;;;;;;5028688;28;20402;-85
2023/03/04 03:47:25;;;;;;;77.17;40.87;;;-1.20;99.90;;;;;;5029429;28;20053;-84
2023/03/04 03:49:50;;;;;;;73.43;39.23;;;-1.30;99.90;;;;;;5028397;28;20083;-84
2023/03/04 03:52:16;;;;;;;73.93;40.93;;;-1.30;99.90;;;;;;5029291;28;20502;-84
2023/03/04 03:54:42;;;;;;;74.63;42.10;;;-1.30;99.90;;;;;;5028226;28;20723;-84
2023/03/04 03:57:07;;;;;;;72.03;38.53;;;-1.30;99.90;;;;;;5029503;28;20096;-84
2023/03/04 03:59:33;;;;;;;71.33;40.23;;;-1.30;99.90;;;;;;5029323;28;20493;-84
2023/03/04 04:01:58;;;;;;;74.53;40.27;;;-1.40;99.90;;;;;;5028307;28;20064;-84
2023/03/04 04:04:24;;;;;;;71.33;41.20;;;-1.40;99.90;;;;;;5027339;28;20025;-84
2023/03/04 04:06:50;;;;;;;76.47;40.80;;;-1.40;99.90;;;;;;5028342;28;20464;-84
2023/03/04 04:09:15;;;;;;;78.00;41.80;;;-1.40;99.90;;;;;;5027854;28;20057;-84
2023/03/04 04:11:41;;;;;;;69.27;38.77;;;-1.40;99.90;;;;;;5027709;28;20025;-85
2023/03/04 04:14:10;;;;;;;71.37;39.50;;;-1.40;99.90;;;;;;5029552;28;20028;-85
2023/03/04 04:16:35;;;;;;;72.90;40.33;;;-1.40;99.90;;;;;;5029780;28;20053;-85
2023/03/04 04:19:01;;;;;;;72.50;40.17;;;-1.40;99.90;;;;;;5031857;28;20053;-85
2023/03/04 04:21:26;;;;;;;71.37;39.77;;;-1.40;99.90;;;;;;5032666;28;20128;-84
2023/03/04 04:23:52;;;;;;;79.50;41.47;;;-1.40;99.90;;;;;;5032443;28;20017;-84
2023/03/04 04:26:17;;;;;;;79.67;41.77;;;-1.40;99.90;;;;;;5029567;28;20052;-84
2023/03/04 04:28:43;;;;;;;77.33;41.40;;;-1.40;99.90;;;;;;5030378;28;20045;-84
2023/03/04 04:31:09;;;;;;;81.83;42.80;;;-1.40;99.90;;;;;;5028298;28;20036;-84
2023/03/04 04:33:35;;;;;;;80.27;43.13;;;-1.40;99.90;;;;;;5026752;28;20040;-84
2023/03/04 04:36:02;;;;;;;84.53;44.10;;;-1.40;99.90;;;;;;5027985;28;20107;-84
2023/03/04 04:38:27;;;;;;;82.07;43.07;;;-1.40;99.90;;;;;;5026819;28;20509;-84
2023/03/04 04:40:57;;;;;;;77.73;40.30;;;-1.40;99.90;;;;;;5027407;28;20156;-84
2023/03/04 04:43:22;;;;;;;73.63;40.63;;;-1.40;99.90;;;;;;5024460;28;20255;-84
2023/03/04 04:45:50;;;;;;;76.47;40.13;;;-1.50;99.90;;;;;;5026661;28;20097;-84
2023/03/04 04:48:16;;;;;;;72.83;39.93;;;-1.40;99.90;;;;;;5027211;28;20076;-84
2023/03/04 04:50:41;;;;;;;72.77;40.13;;;-1.40;99.90;;;;;;5027291;28;20033;-84
2023/03/04 04:53:09;;;;;;;71.47;38.67;;;-1.50;99.90;;;;;;5027655;28;20087;-84
2023/03/04 04:55:35;;;;;;;73.87;40.83;;;-1.50;99.90;;;;;;5026584;28;20036;-84
2023/03/04 04:58:00;;;;;;;74.57;39.67;;;-1.50;99.90;;;;;;5027635;28;20038;-84
2023/03/04 05:00:26;;;;;;;77.57;40.20;;;-1.50;99.90;;;;;;5027763;28;20030;-84
2023/03/04 05:02:51;;;;;;;71.43;40.70;;;-1.50;99.90;;;;;;5028006;28;20516;-84
2023/03/04 05:05:17;;;;;;;70.23;39.83;;;-1.50;99.90;;;;;;5027390;28;20029;-85
2023/03/04 05:07:42;;;;;;;74.53;39.90;;;-1.50;99.90;;;;;;5026405;28;20050;-85
2023/03/04 05:10:09;;;;;;;71.80;39.13;;;-1.50;99.90;;;;;;5028484;28;20029;-85
2023/03/04 05:12:34;;;;;;;73.63;39.37;;;-1.50;99.90;;;;;;5028493;28;20070;-85
2023/03/04 05:15:00;;;;;;;71.27;38.47;;;-1.60;99.90;;;;;;5031813;28;20172;-85
2023/03/04 05:17:25;;;;;;;77.03;39.10;;;-1.60;99.90;;;;;;5032857;28;20025;-84
2023/03/04 05:19:51;;;;;;;73.40;37.57;;;-1.60;99.90;;;;;;5030627;28;20424;-85
2023/03/04 05:22:16;;;;;;;72.67;39.87;;;-1.60;99.90;;;;;;5029924;28;20057;-85
2023/03/04 05:24:42;;;;;;;68.97;37.70;;;-1.60;99.90;;;;;;5032194;28;20034;-83
2023/03/04 05:27:07;;;;;;;67.20;37.50;;;-1.60;99.90;;;;;;5031673;28;20159;-84
2023/03/04 05:29:33;;;;;;;69.53;38.50;;;-1.60;99.90;;;;;;5032190;28;20022;-83
2023/03/04 05:31:58;;;;;;;67.20;36.73;;;-1.60;99.90;;;;;;5031460;28;20029;-84
2023/03/04 05:34:24;;;;;;;69.50;38.57;;;-1.70;99.90;;;;;;5031823;28;20033;-84
2023/03/04 05:36:49;;;;;;;64.70;38.57;;;-1.70;99.90;;;;;;5031196;28;20076;-84
2023/03/04 05:39:15;;;;;;;66.67;37.43;;;-1.70;99.90;;;;;;5030674;28;20813;-83
2023/03/04 05:41:40;;;;;;;67.83;37.90;;;-1.70;99.90;;;;;;5031289;28;20026;-84
2023/03/04 05:44:06;;;;;;;69.10;38.37;;;-1.70;99.90;;;;;;5032277;28;20035;-83
2023/03/04 05:46:31;;;;;;;75.43;38.93;;;-1.70;99.90;;;;;;5030721;28;20059;-83
2023/03/04 05:48:57;;;;;;;71.77;38.50;;;-1.70;99.90;;;;;;5028807;28;20826;-83
2023/03/04 05:51:23;;;;;;;77.93;40.27;;;-1.80;99.90;;;;;;5030484;28;20497;-83
2023/03/04 05:53:48;;;;;;;76.53;40.23;;;-1.80;99.90;;;;;;5027477;28;20044;-83
2023/03/04 05:56:17;;;;;;;74.70;39.40;;;-1.80;99.90;;;;;;5032721;28;20038;-83
2023/03/04 05:58:43;;;;;;;72.20;39.83;;;-1.80;99.90;;;;;;5026968;28;20116;-83
2023/03/04 06:01:12;;;;;;;78.87;41.00;;;-1.70;99.90;;;;;;5030893;28;20718;-83
2023/03/04 06:03:38;;;;;;;78.27;40.87;;;-1.80;99.90;;;;;;5029842;28;20049;-83
2023/03/04 06:06:04;;;;;;;77.93;39.60;;;-1.70;99.90;;;;;;5030805;28;20068;-83
2023/03/04 06:08:29;;;;;;;76.83;41.30;;;-1.70;99.90;;;;;;5032025;28;20095;-83
2023/03/04 06:10:56;;;;;;;81.47;42.03;;;-1.70;99.90;;;;;;5031178;28;20029;-83
2023/03/04 06:13:22;;;;;;;79.27;41.30;;;-1.70;99.90;;;;;;5028368;28;20021;-83
2023/03/04 06:15:56;;;;;;;80.90;41.17;;;-1.70;99.90;;;;;;5027047;28;20469;-83
2023/03/04 06:18:23;;;;;;;83.47;42.57;;;-1.70;99.90;;;;;;5030227;28;20379;-83
2023/03/04 06:20:49;;;;;;;76.03;41.63;;;-1.60;99.90;;;;;;5029232;28;20144;-83
2023/03/04 06:23:15;;;;;;;76.27;40.87;;;-1.60;99.90;;;;;;5028975;28;20038;-83
2023/03/04 06:25:40;;;;;;;77.67;40.80;;;-1.60;99.90;;;;;;5030859;28;20136;-83
2023/03/04 06:28:09;;;;;;;78.60;41.20;;;-1.60;99.90;;;;;;5030035;28;20364;-83
2023/03/04 06:30:34;;;;;;;77.77;41.33;;;-1.60;99.90;;;;;;5032438;28;20045;-84
2023/03/04 06:33:00;;;;;;;76.20;41.00;;;-1.60;99.90;;;;;;5031846;28;20041;-83
2023/03/04 06:35:26;;;;;;;78.13;41.97;;;-1.50;99.90;;;;;;5030961;28;20493;-83
2023/03/04 06:37:51;;;;;;;83.20;44.07;;;-1.50;99.90;;;;;;5031979;28;20037;-84
2023/03/04 06:40:17;;;;;;;79.87;41.93;;;-1.40;99.90;;;;;;5030067;28;20041;-84
2023/03/04 06:42:43;;;;;;;81.13;42.00;;;-1.40;99.90;;;;;;5028432;28;20036;-84
2023/03/04 06:45:09;;;;;;;78.57;41.53;;;-1.40;99.90;;;;;;5029403;28;20021;-84
2023/03/04 06:47:35;;;;;;;86.93;45.23;;;-1.40;99.90;;;;;;5028609;28;20046;-84
2023/03/04 06:50:02;;;;;;;91.27;44.43;;;-1.30;99.90;;;;;;5029488;28;20123;-84
2023/03/04 06:52:28;;;;;;;86.97;46.00;;;-1.30;99.90;;;;;;5027661;28;20389;-84
2023/03/04 06:54:53;;;;;;;83.83;43.97;;;-1.30;99.90;;;;;;5026758;28;20038;-84
2023/03/04 06:57:19;;;;;;;88.37;44.40;;;-1.20;99.90;;;;;;5029820;28;20042;-84
2023/03/04 06:59:44;;;;;;;82.30;42.70;;;-1.20;99.90;;;;;;5031174;28;20029;-84
2023/03/04 07:02:11;;;;;;;76.73;41.70;;;-1.10;99.90;;;;;;5032449;28;20029;-80
2023/03/04 07:04:37;;;;;;;75.63;40.77;;;-1.00;99.90;;;;;;5032264;28;20096;-80
2023/03/04 07:07:02;;;;;;;71.67;40.53;;;-0.90;99.90;;;;;;5033868;28;20029;-79
2023/03/04 07:09:28;;;;;;;75.17;41.60;;;-0.80;99.90;;;;;;5029615;28;20030;-79
2023/03/04 07:11:54;;;;;;;75.23;41.20;;;-0.70;99.90;;;;;;5036377;28;20548;-84
2023/03/04 07:14:19;;;;;;;73.90;41.57;;;-0.70;99.90;;;;;;5030172;28;20025;-84
2023/03/04 07:16:45;;;;;;;73.33;39.90;;;-0.60;99.90;;;;;;5029847;28;20026;-80
2023/03/04 07:19:10;;;;;;;78.77;42.03;;;-0.60;99.90;;;;;;5033020;28;20025;-80
2023/03/04 07:21:36;;;;;;;78.20;41.07;;;-0.50;99.90;;;;;;5027521;28;20044;-80
2023/03/04 07:24:03;;;;;;;79.23;40.67;;;-0.40;99.90;;;;;;5025414;28;20013;-79
2023/03/04 07:26:28;;;;;;;79.03;43.43;;;-0.40;99.90;;;;;;5030877;28;20031;-79
2023/03/04 07:28:57;;;;;;;79.10;42.53;;;-0.30;99.90;;;;;;5035693;28;20025;-79
2023/03/04 07:31:38;;;;;;;78.90;43.37;;;-0.30;99.90;;;;;;5029762;28;20029;-79
2023/03/04 07:34:07;;;;;;;81.33;44.00;;;-0.20;99.90;;;;;;5026838;28;20037;-83
2023/03/04 07:36:35;;;;;;;80.10;43.33;;;-0.10;99.90;;;;;;5027187;28;20421;-84
2023/03/04 07:39:01;;;;;;;75.80;42.40;;;-0.10;99.90;;;;;;5034975;28;20025;-84
2023/03/04 07:41:29;;;;;;;79.70;42.73;;;0.00;99.90;;;;;;5032015;28;20362;-84
2023/03/04 07:43:56;;;;;;;74.83;41.97;;;0.10;99.90;;;;;;5033779;28;20103;-84
2023/03/04 07:46:22;;;;;;;79.27;42.40;;;0.20;99.90;;;;;;5031715;28;20061;-84
2023/03/04 07:48:48;;;;;;;75.47;42.10;;;0.20;99.90;;;;;;5033260;28;20120;-85
2023/03/04 07:51:23;;;;;;;76.30;43.27;;;0.20;99.90;;;;;;5030947;28;20541;-84
2023/03/04 07:53:52;;;;;;;71.47;42.63;;;0.30;99.90;;;;;;5029245;28;20386;-84
2023/03/04 07:56:20;;;;;;;75.30;41.30;;;0.40;99.90;;;;;;5025373;28;20454;-84
2023/03/04 07:58:46;;;;;;;71.87;40.63;;;0.50;99.90;;;;;;5028192;28;20029;-83
2023/03/04 08:01:22;;;;;;;73.63;40.70;;;0.50;99.90;;;;;;5026255;28;20507;-83
2023/03/04 08:03:50;;;;;;;74.30;40.80;;;0.70;99.90;;;;;;5028380;28;20167;-75
2023/03/04 08:06:18;;;;;;;74.67;41.73;;;0.80;99.90;;;;;;5031698;28;20036;-87
2023/03/04 08:08:44;;;;;;;72.93;40.30;;;0.80;99.90;;;;;;5036863;28;20550;-87
2023/03/04 08:11:13;;;;;;;74.27;41.83;;;0.90;99.90;;;;;;5033766;28;20141;-87
2023/03/04 08:13:39;;;;;;;74.53;41.43;;;1.10;99.90;;;;;;5036823;28;20141;-84
2023/03/04 08:16:05;;;;;;;74.97;40.93;;;1.10;99.90;;;;;;5034404;28;20029;-83
2023/03/04 08:18:30;;;;;;;71.87;40.80;;;1.20;99.90;;;;;;5034303;28;20021;-83
2023/03/04 08:20:56;;;;;;;68.10;38.77;;;1.30;99.90;;;;;;5031717;28;20487;-82
2023/03/04 08:23:22;;;;;;;72.87;40.50;;;1.40;99.90;;;;;;5031830;28;20422;-85
2023/03/04 08:25:47;;;;;;;72.13;41.17;;;1.50;99.90;;;;;;5033538;28;20029;-81
2023/03/04 08:28:14;;;;;;;75.63;40.43;;;1.60;99.90;;;;;;5032742;28;20033;-81
2023/03/04 08:30:40;;;;;;;74.03;41.23;;;1.70;99.90;;;;;;5033576;28;20091;-81
2023/03/04 08:33:06;;;;;;;74.30;40.20;;;1.70;99.90;;;;;;5034616;28;20034;-81
2023/03/04 08:35:35;;;;;;;73.40;40.60;;;1.90;99.90;;;;;;5035552;28;20102;-81
2023/03/04 08:38:00;;;;;;;71.37;40.40;;;1.90;99.90;;;;;;5035918;28;20083;-81
2023/03/04 08:40:26;;;;;;;69.23;39.10;;;2.00;99.90;;;;;;5032336;28;20025;-81
2023/03/04 08:42:52;;;;;;;72.50;39.33;;;2.10;99.90;;;;;;5031507;28;20091;-81
2023/03/04 08:45:17;;;;;;;74.00;40.27;;;2.20;99.90;;;;;;5032945;28;20112;-81
2023/03/04 08:47:43;;;;;;;67.23;38.67;;;2.20;99.90;;;;;;5030337;28;20057;-81
2023/03/04 08:50:09;;;;;;;68.03;39.43;;;2.50;99.90;;;;;;5031175;28;20057;-83
2023/03/04 08:52:35;;;;;;;60.97;37.33;;;2.60;99.90;;;;;;5033880;28;20025;-82
2023/03/04 08:55:01;;;;;;;67.17;38.07;;;2.80;99.90;;;;;;5035287;28;20057;-84
2023/03/04 08:57:27;;;;;;;66.60;37.70;;;2.90;99.90;;;;;;5029932;28;20542;-80
2023/03/04 08:59:52;;;;;;;66.30;38.70;;;3.00;99.90;;;;;;5040653;28;20097;-83
2023/03/04 09:02:18;;;;;;;61.20;36.90;;;3.00;99.90;;;;;;5031654;28;21320;-83
2023/03/04 09:04:43;;;;;;;61.80;34.67;;;3.20;99.90;;;;;;5034125;28;20029;-83
2023/03/04 09:07:10;;;;;;;65.80;36.17;;;3.20;99.90;;;;;;5031553;28;20072;-83
2023/03/04 09:09:35;;;;;;;64.63;35.77;;;3.30;99.90;;;;;;5034264;28;20075;-83
2023/03/04 09:12:01;;;;;;;62.47;36.87;;;3.40;99.90;;;;;;5035498;28;20032;-84
2023/03/04 09:14:27;;;;;;;61.40;37.63;;;3.40;99.90;;;;;;5030602;28;20068;-84
2023/03/04 09:16:52;;;;;;;61.73;34.83;;;3.50;99.90;;;;;;5016486;28;20548;-84
2023/03/04 09:19:21;;;;;;;61.07;34.93;;;3.60;99.90;;;;;;5023606;28;20057;-84
2023/03/04 09:21:47;;;;;;;57.93;33.37;;;3.70;99.90;;;;;;5026200;28;20029;-84
2023/03/04 09:24:12;;;;;;;54.50;32.83;;;3.90;99.90;;;;;;5024783;28;20031;-84
2023/03/04 09:26:38;;;;;;;57.03;34.17;;;4.00;99.90;;;;;;5024827;28;20098;-84
2023/03/04 09:29:03;;;;;;;60.73;34.50;;;4.10;99.90;;;;;;5028682;28;20235;-84
2023/03/04 09:31:29;;;;;;;57.33;33.10;;;4.20;99.90;;;;;;5033714;28;20149;-84
2023/03/04 09:33:57;;;;;;;56.53;31.73;;;4.30;99.90;;;;;;5033818;28;20052;-83
2023/03/04 09:36:23;;;;;;;51.10;31.13;;;4.60;99.90;;;;;;5031703;28;20074;-83
2023/03/04 09:38:49;;;;;;;49.37;29.40;;;4.70;99.90;;;;;;5030558;28;20965;-83
2023/03/04 09:41:19;;;;;;;41.87;24.70;;;4.80;99.90;;;;;;5028487;28;20030;-84
2023/03/04 09:43:46;;;;;;;51.27;27.80;;;4.90;99.90;;;;;;5029570;28;20014;-86
2023/03/04 09:46:15;;;;;;;49.43;29.07;;;4.80;99.90;;;;;;5025620;28;20113;-86
2023/03/04 09:48:48;;;;;;;41.23;25.90;;;4.90;99.90;;;;;;5034316;28;20107;-87
2023/03/04 09:51:40;;;;;;;50.73;27.60;;;4.90;99.90;;;;;;5035389;28;20049;-87
2023/03/04 09:54:09;;;;;;;45.10;27.10;;;4.90;99.90;;;;;;5036248;28;20177;-87
2023/03/04 09:56:37;;;;;;;43.97;26.03;;;5.10;99.90;;;;;;5037261;28;20032;-85
2023/03/04 09:59:15;;;;;;;45.30;26.53;;;5.10;99.90;;;;;;5035711;28;20029;-88
2023/03/04 10:01:51;;;;;;;41.90;26.00;;;5.20;99.90;;;;;;5037804;28;20044;-87
2023/03/04 10:04:42;;;;;;;45.47;26.80;;;5.40;99.90;;;;;;5037497;28;20051;-87
2023/03/04 10:07:17;;;;;;;50.40;27.27;;;5.40;99.90;;;;;;5036804;28;20091;-87
2023/03/04 10:09:46;;;;;;;42.47;24.83;;;5.60;99.90;;;;;;5032800;28;20030;-87
2023/03/04 10:12:15;;;;;;;41.93;25.23;;;5.70;99.90;;;;;;5041252;28;20039;-88
2023/03/04 10:15:02;;;;;;;47.40;27.67;;;5.80;99.90;;;;;;5038979;28;20389;-87
2023/03/04 10:17:43;;;;;;;41.67;25.37;;;5.80;99.90;;;;;;5037841;28;20518;-88
2023/03/04 10:20:08;;;;;;;41.43;24.63;;;5.90;99.90;;;;;;5039699;28;20025;-88
2023/03/04 10:22:47;;;;;;;40.53;24.03;;;6.00;99.90;;;;;;5035754;28;20021;-89
2023/03/04 10:25:16;;;;;;;44.60;26.77;;;6.20;99.90;;;;;;5031917;28;20025;-89
2023/03/04 10:28:05;;;;;;;40.80;24.80;;;6.40;99.90;;;;;;5030164;28;20482;-89
2023/03/04 10:30:53;;;;;;;43.50;25.97;;;6.50;99.90;;;;;;5033319;28;20021;-88
2023/03/04 10:33:23;;;;;;;42.17;25.53;;;6.60;99.90;;;;;;5037679;28;20447;-89
2023/03/04 10:36:04;;;;;;;41.73;25.97;;;6.80;99.90;;;;;;5033929;28;20429;-88
2023/03/04 10:38:33;;;;;;;45.83;26.53;;;6.90;99.90;;;;;;5034831;28;20765;-88
2023/03/04 10:40:59;;;;;;;40.47;24.67;;;6.90;99.90;;;;;;5035708;28;20022;-88
2023/03/04 10:43:25;;;;;;;42.33;25.90;;;6.80;99.90;;;;;;5031766;28;20040;-88
2023/03/04 10:45:57;;;;;;;43.70;25.80;;;6.70;99.90;;;;;;5025866;28;20167;-87
2023/03/04 10:48:26;;;;;;;45.33;26.50;;;6.70;99.90;;;;;;5037071;28;20045;-87
2023/03/04 10:50:52;;;;;;;43.13;25.03;;;6.70;99.90;;;;;;5035524;28;20021;-88
2023/03/04 10:53:32;;;;;;;39.63;24.70;;;6.80;99.90;;;;;;5038901;28;20013;-89
2023/03/04 10:55:58;;;;;;;43.83;26.70;;;6.90;99.90;;;;;;5032036;28;20023;-91
2023/03/04 10:58:23;;;;;;;44.30;25.30;;;7.00;99.90;;;;;;5036050;28;20025;-89
2023/03/04 11:01:04;;;;;;;39.70;25.67;;;7.10;99.90;;;;;;5029932;28;20036;-86
2023/03/04 11:03:35;;;;;;;41.77;26.47;;;7.20;99.90;;;;;;5034860;28;20021;-85
2023/03/04 11:06:19;;;;;;;40.73;25.03;;;7.30;99.90;;;;;;5035109;28;20036;-86
2023/03/04 11:08:51;;;;;;;45.50;26.53;;;7.40;99.90;;;;;;5035568;28;20730;-86
2023/03/04 11:11:36;;;;;;;44.20;25.93;;;7.60;99.90;;;;;;5031900;28;20032;-85
2023/03/04 11:14:12;;;;;;;45.50;27.35;;;7.70;99.90;;;;;;5036095;28;20378;-86
2023/03/04 11:16:38;;;;;;;43.07;25.13;;;7.50;99.90;;;;;;5037021;28;20029;-86
2023/03/04 11:19:12;;;;;;;42.20;26.80;;;7.40;99.90;;;;;;5040298;28;20028;-85
2023/03/04 11:21:39;;;;;;;45.00;25.87;;;7.30;99.90;;;;;;5030178;28;20033;-87
2023/03/04 11:24:20;;;;;;;41.53;25.50;;;7.30;99.90;;;;;;5017931;28;20091;-87
2023/03/04 11:26:54;;;;;;;41.53;25.20;;;7.40;99.90;;;;;;5029335;28;21451;-87
2023/03/04 11:29:23;;;;;;;40.80;24.63;;;7.30;99.90;;;;;;5034230;28;20032;-87
2023/03/04 11:31:54;;;;;;;42.87;26.07;;;7.30;99.90;;;;;;5035334;28;20071;-86
2023/03/04 11:34:50;;;;;;;41.47;26.23;;;7.50;99.90;;;;;;5032863;28;20771;-87
2023/03/04 11:37:29;;;;;;;43.60;25.47;;;7.60;99.90;;;;;;5032212;28;20029;-87
2023/03/04 11:40:09;;;;;;;41.73;25.93;;;7.50;99.90;;;;;;5035530;28;20026;-87
2023/03/04 11:42:41;;;;;;;42.20;25.03;;;7.60;99.90;;;;;;5033717;28;20020;-87
2023/03/04 11:45:30;;;;;;;42.20;26.40;;;7.80;99.90;;;;;;5034061;28;20029;-87
2023/03/04 11:48:19;;;;;;;41.27;25.10;;;7.90;99.90;;;;;;5034975;28;20694;-87
2023/03/04 11:50:52;;;;;;;42.20;24.93;;;8.20;99.90;;;;;;5032640;28;20068;-87
2023/03/04 11:53:26;;;;;;;39.70;23.77;;;8.10;99.90;;;;;;5034045;28;20064;-87
2023/03/04 11:56:23;;;;;;;38.35;24.30;;;8.30;99.90;;;;;;5023568;28;20431;-80
2023/03/04 11:59:26;;;;;;;37.60;22.83;;;8.40;99.90;;;;;;5013032;28;20026;-81
2023/03/04 12:02:09;;;;;;;38.23;23.97;;;8.50;99.90;;;;;;5025801;28;20049;-77
2023/03/04 12:04:38;;;;;;;37.43;23.00;;;8.60;99.90;;;;;;5027726;28;20407;-81
2023/03/04 12:07:41;;;;;;;33.83;21.00;;;8.70;99.90;;;;;;5031802;28;20032;-80
2023/03/04 12:10:27;;;;;;;37.43;23.23;;;9.00;99.90;;;;;;5053513;28;20020;-83
2023/03/04 12:13:41;;;;;;;35.85;22.85;;;9.20;99.90;;;;;;5043550;28;20397;-82
2023/03/04 12:16:20;;;;;;;39.30;23.70;;;9.30;99.90;;;;;;5033098;28;20037;-82
2023/03/04 12:18:57;;;;;;;35.60;23.27;;;9.40;99.90;;;;;;5025940;28;20063;-82
2023/03/04 12:21:51;;;;;;;36.80;21.47;;;9.40;99.90;;;;;;5031518;28;20024;-84
2023/03/04 12:24:40;;;;;;;35.97;23.27;;;9.60;99.90;;;;;;5022108;28;20048;-82
2023/03/04 12:27:31;;;;;;;39.10;22.80;;;9.50;99.90;;;;;;5017197;28;20136;-83
2023/03/04 12:30:05;;;;;;;35.17;21.87;;;9.20;99.90;;;;;;5032450;28;20433;-82
2023/03/04 12:32:38;;;;;;;36.00;21.70;;;9.00;99.90;;;;;;5036096;28;20029;-83
2023/03/04 12:35:31;;;;;;;33.10;20.50;;;8.80;99.90;;;;;;5033623;28;20022;-85
2023/03/04 12:38:18;;;;;;;35.00;21.00;;;9.00;99.90;;;;;;5031368;28;20378;-87
2023/03/04 12:40:51;;;;;;;33.03;20.90;;;8.70;99.90;;;;;;5036122;28;20462;-80